Time;durP1;ratioP1;P1;durP2;ratioP2;P2;SDS_P1;SDS_P2;PMS_P1;PMS_P2;Temp;Humidity;BMP_temperature;BMP_pressure;BME280_temperature;BME280_humidity;BME280_pressure;Samples;Min_cycle;Max_cycle;Signal;HPM_P1;HPM_P2
2020/12/22 00:01:26;;;;;;;2.07;1.87;;;9.80;99.90;;;;;;5056912;28;20306;-71
2020/12/22 00:03:52;;;;;;;2.43;2.07;;;9.80;99.90;;;;;;5057798;28;20203;-72
2020/12/22 00:06:23;;;;;;;2.03;1.83;;;9.80;99.90;;;;;;5057876;28;20172;-70
2020/12/22 00:08:49;;;;;;;1.90;1.80;;;9.80;99.90;;;;;;5056564;28;20187;-69
2020/12/22 00:11:15;;;;;;;2.07;1.97;;;10.00;99.90;;;;;;5054637;28;20235;-69
2020/12/22 00:13:41;;;;;;;2.67;2.33;;;10.00;99.90;;;;;;5054786;28;20195;-69
2020/12/22 00:16:06;;;;;;;2.60;2.33;;;9.90;99.90;;;;;;5040870;28;20183;-70
2020/12/22 00:18:32;;;;;;;1.97;1.87;;;9.90;99.90;;;;;;5047312;28;20196;-69
2020/12/22 00:20:57;;;;;;;2.10;1.90;;;9.90;99.90;;;;;;5051903;28;20254;-70
2020/12/22 00:23:23;;;;;;;1.93;1.83;;;9.90;99.90;;;;;;5053198;28;20585;-69
2020/12/22 00:25:50;;;;;;;3.43;2.43;;;9.90;99.90;;;;;;5052328;28;20187;-70
2020/12/22 00:28:16;;;;;;;1.93;1.70;;;9.90;99.90;;;;;;5034718;28;20255;-72
2020/12/22 00:30:43;;;;;;;2.30;2.10;;;9.90;99.90;;;;;;5052705;28;20203;-70
2020/12/22 00:33:09;;;;;;;1.90;1.80;;;9.90;99.90;;;;;;5053401;28;20215;-70
2020/12/22 00:35:34;;;;;;;2.07;1.97;;;9.90;99.90;;;;;;5052693;28;20180;-70
2020/12/22 00:38:00;;;;;;;1.80;1.70;;;9.90;99.90;;;;;;5051871;28;20672;-70
2020/12/22 00:40:27;;;;;;;1.83;1.73;;;10.00;99.90;;;;;;5052167;28;20333;-69
2020/12/22 00:42:53;;;;;;;2.00;1.90;;;10.10;99.90;;;;;;5051932;28;20200;-71
2020/12/22 00:45:20;;;;;;;3.20;1.93;;;10.10;99.90;;;;;;5052464;28;20180;-71
2020/12/22 00:47:46;;;;;;;3.07;1.77;;;10.20;99.90;;;;;;5051462;28;20187;-70
2020/12/22 00:50:12;;;;;;;1.50;1.40;;;10.20;99.90;;;;;;5051965;28;20179;-71
2020/12/22 00:52:37;;;;;;;1.70;1.60;;;10.30;99.90;;;;;;5052084;28;20222;-70
2020/12/22 00:55:04;;;;;;;1.50;1.40;;;10.40;99.90;;;;;;5051969;28;20207;-69
2020/12/22 00:57:30;;;;;;;2.00;1.77;;;10.40;99.90;;;;;;5051663;28;20172;-70
2020/12/22 00:59:56;;;;;;;1.53;1.43;;;10.40;99.90;;;;;;5051525;28;20269;-71
2020/12/22 01:02:21;;;;;;;1.70;1.60;;;10.40;99.90;;;;;;5051657;28;20203;-71
2020/12/22 01:04:49;;;;;;;3.27;1.70;;;10.40;99.90;;;;;;5041805;28;20176;-71
2020/12/22 01:07:15;;;;;;;1.67;1.57;;;10.50;99.90;;;;;;5051129;28;20810;-69
2020/12/22 01:09:41;;;;;;;1.50;1.40;;;10.50;99.90;;;;;;5052335;28;20184;-69
2020/12/22 01:12:06;;;;;;;3.77;2.10;;;10.50;99.90;;;;;;5072510;28;20219;-70
2020/12/22 01:14:32;;;;;;;3.13;1.60;;;10.50;99.90;;;;;;5069011;28;20194;-70
2020/12/22 01:16:58;;;;;;;1.40;1.33;;;10.50;99.90;;;;;;5053325;28;20191;-70
2020/12/22 01:19:23;;;;;;;1.30;1.30;;;10.60;99.90;;;;;;5050951;28;20192;-69
2020/12/22 01:21:53;;;;;;;1.60;1.50;;;10.60;99.90;;;;;;5051516;28;20199;-70
2020/12/22 01:24:22;;;;;;;3.13;1.50;;;10.60;99.90;;;;;;5047098;28;20187;-71
2020/12/22 01:26:49;;;;;;;1.40;1.30;;;10.60;99.90;;;;;;5050836;28;20179;-71
2020/12/22 01:29:15;;;;;;;1.53;1.43;;;10.70;99.90;;;;;;5051263;28;20188;-70
2020/12/22 01:31:40;;;;;;;1.50;1.40;;;10.80;99.90;;;;;;5051557;28;20196;-70
2020/12/22 01:34:06;;;;;;;1.20;1.20;;;10.80;99.90;;;;;;5050767;28;20250;-70
2020/12/22 01:36:32;;;;;;;1.17;1.10;;;10.80;99.90;;;;;;5050908;28;20211;-69
2020/12/22 01:38:58;;;;;;;1.30;1.20;;;10.80;99.90;;;;;;5050353;28;20289;-69
2020/12/22 01:41:24;;;;;;;2.03;1.00;;;10.80;99.90;;;;;;5051261;28;20283;-69
2020/12/22 01:44:14;;;;;;;1.23;1.23;;;10.80;99.90;;;;;;5051333;28;20825;-72
2020/12/22 01:46:48;;;;;;;1.40;1.30;;;10.90;99.90;;;;;;5031945;28;20265;-70
2020/12/22 01:49:24;;;;;;;1.53;1.40;;;10.90;99.90;;;;;;5050729;28;20179;-70
2020/12/22 01:51:51;;;;;;;1.77;1.33;;;10.90;99.90;;;;;;5050817;28;20242;-70
2020/12/22 01:54:17;;;;;;;1.90;1.40;;;10.80;99.90;;;;;;5033239;28;20253;-70
2020/12/22 01:56:44;;;;;;;1.03;1.03;;;10.80;99.90;;;;;;5038712;28;20183;-70
2020/12/22 01:59:10;;;;;;;1.77;1.10;;;10.80;99.90;;;;;;5033704;28;20207;-69
2020/12/22 02:01:36;;;;;;;1.30;1.00;;;10.80;99.90;;;;;;5051673;28;20223;-70
2020/12/22 02:04:04;;;;;;;1.30;1.20;;;10.80;99.90;;;;;;5047102;28;20663;-70
2020/12/22 02:06:30;;;;;;;1.30;1.10;;;10.80;99.90;;;;;;5050341;28;20589;-70
2020/12/22 02:08:57;;;;;;;1.63;1.50;;;10.90;99.90;;;;;;5050058;28;20188;-70
2020/12/22 02:11:24;;;;;;;1.10;1.10;;;10.90;99.90;;;;;;5050117;28;20203;-70
2020/12/22 02:13:50;;;;;;;1.80;1.00;;;10.90;99.90;;;;;;5049959;28;20280;-70
2020/12/22 02:16:16;;;;;;;1.30;1.20;;;10.90;99.90;;;;;;5049718;28;20267;-70
2020/12/22 02:18:42;;;;;;;1.17;1.17;;;10.90;99.90;;;;;;5049453;28;20235;-70
2020/12/22 02:21:07;;;;;;;1.00;1.00;;;11.00;99.90;;;;;;5049479;28;20210;-70
2020/12/22 02:23:33;;;;;;;1.40;1.30;;;11.00;99.90;;;;;;5049924;28;20183;-70
2020/12/22 02:25:59;;;;;;;1.20;1.10;;;10.90;99.90;;;;;;5049829;28;20647;-71
2020/12/22 02:28:24;;;;;;;1.27;1.17;;;11.00;99.90;;;;;;5049310;28;20186;-70
2020/12/22 02:30:50;;;;;;;0.90;0.90;;;11.10;99.90;;;;;;5049220;28;20210;-70
2020/12/22 02:33:15;;;;;;;1.10;1.03;;;11.00;99.90;;;;;;5043731;28;20216;-69
2020/12/22 02:35:41;;;;;;;1.10;1.10;;;11.10;99.90;;;;;;5047586;28;20876;-69
2020/12/22 02:38:06;;;;;;;0.97;0.97;;;11.20;99.90;;;;;;5048886;28;20258;-71
2020/12/22 02:40:32;;;;;;;1.33;1.20;;;11.20;99.90;;;;;;5034205;28;20278;-71
2020/12/22 02:43:13;;;;;;;1.00;1.00;;;11.30;99.90;;;;;;5048872;28;20570;-71
2020/12/22 02:45:41;;;;;;;1.17;0.87;;;11.30;99.90;;;;;;5049716;28;20176;-71
2020/12/22 02:48:10;;;;;;;0.93;0.93;;;11.30;99.90;;;;;;5048938;28;20167;-71
2020/12/22 02:50:36;;;;;;;1.30;1.20;;;11.30;99.90;;;;;;5048536;28;20179;-71
2020/12/22 02:53:03;;;;;;;0.90;0.90;;;11.30;99.90;;;;;;5049246;28;20203;-70
2020/12/22 02:55:29;;;;;;;2.20;1.13;;;11.20;99.90;;;;;;5049440;28;20172;-71
2020/12/22 02:57:54;;;;;;;2.97;1.20;;;11.20;99.90;;;;;;5048778;28;20179;-71
2020/12/22 03:00:21;;;;;;;1.00;1.00;;;11.30;99.90;;;;;;5049457;28;20171;-71
2020/12/22 03:02:47;;;;;;;0.83;0.83;;;11.30;99.90;;;;;;5049153;28;20211;-71
2020/12/22 03:05:13;;;;;;;0.80;0.80;;;11.30;99.90;;;;;;5048544;28;20925;-71
2020/12/22 03:07:38;;;;;;;1.60;0.90;;;11.40;99.90;;;;;;5048063;28;20192;-71
2020/12/22 03:10:08;;;;;;;1.17;1.07;;;11.40;99.90;;;;;;5049304;28;20183;-71
2020/12/22 03:12:34;;;;;;;0.90;0.90;;;11.50;99.90;;;;;;5049929;28;20662;-70
2020/12/22 03:15:01;;;;;;;1.08;1.08;;;11.50;99.90;;;;;;5048773;28;20203;-71
2020/12/22 03:17:26;;;;;;;0.90;0.90;;;11.50;99.70;;;;;;5048549;28;20184;-71
2020/12/22 03:19:52;;;;;;;0.97;0.90;;;11.60;99.70;;;;;;5049517;28;20336;-72
2020/12/22 03:22:18;;;;;;;0.97;0.97;;;11.60;99.50;;;;;;5049526;28;20202;-69
2020/12/22 03:24:43;;;;;;;0.83;0.83;;;11.60;99.40;;;;;;5038008;28;20176;-70
2020/12/22 03:27:09;;;;;;;1.20;1.10;;;11.50;99.60;;;;;;5049992;28;20187;-70
2020/12/22 03:29:34;;;;;;;1.00;1.00;;;11.60;99.40;;;;;;5053360;28;20625;-70
2020/12/22 03:32:00;;;;;;;0.90;0.90;;;11.60;99.40;;;;;;5038806;28;20278;-70
2020/12/22 03:34:26;;;;;;;0.90;0.90;;;11.60;99.30;;;;;;5037181;28;20199;-70
2020/12/22 03:36:52;;;;;;;0.90;0.90;;;11.60;99.10;;;;;;5054541;28;20236;-70
2020/12/22 03:39:18;;;;;;;1.17;0.90;;;11.70;98.90;;;;;;5068645;28;20200;-71
2020/12/22 03:41:44;;;;;;;1.10;1.10;;;11.70;98.90;;;;;;5071352;28;20211;-71
2020/12/22 03:44:11;;;;;;;1.70;0.90;;;11.70;99.00;;;;;;5064329;28;20179;-73
2020/12/22 03:46:37;;;;;;;1.60;0.98;;;11.70;99.00;;;;;;5063724;28;20548;-69
2020/12/22 03:49:03;;;;;;;0.90;0.90;;;11.70;99.20;;;;;;5053013;28;20262;-70
2020/12/22 03:51:29;;;;;;;0.80;0.80;;;11.70;99.00;;;;;;5052935;28;20222;-71
2020/12/22 03:53:55;;;;;;;0.75;0.75;;;11.80;98.80;;;;;;5053860;28;20179;-70
2020/12/22 03:56:20;;;;;;;1.33;0.90;;;11.80;98.70;;;;;;5052862;28;20730;-70
2020/12/22 03:58:46;;;;;;;0.80;0.80;;;11.80;98.60;;;;;;5053142;28;20210;-70
2020/12/22 04:01:11;;;;;;;0.90;0.90;;;11.80;98.60;;;;;;5035477;28;20249;-69
2020/12/22 04:03:37;;;;;;;0.90;0.90;;;11.80;98.70;;;;;;5047491;28;20195;-70
2020/12/22 04:06:03;;;;;;;1.00;1.00;;;11.80;98.60;;;;;;5054011;28;20178;-70
2020/12/22 04:08:28;;;;;;;0.80;0.80;;;11.80;98.60;;;;;;5052723;28;20175;-70
2020/12/22 04:10:55;;;;;;;1.10;1.10;;;11.80;98.60;;;;;;5053488;28;20190;-70
2020/12/22 04:13:20;;;;;;;2.15;1.20;;;11.90;98.60;;;;;;5041076;28;20231;-71
2020/12/22 04:15:46;;;;;;;1.08;0.95;;;11.80;98.90;;;;;;5050119;28;20813;-70
2020/12/22 04:18:12;;;;;;;1.43;1.20;;;11.70;99.00;;;;;;5018788;28;20210;-71
2020/12/22 04:20:38;;;;;;;0.98;0.98;;;11.70;99.10;;;;;;5053138;28;20172;-71
2020/12/22 04:23:03;;;;;;;1.20;0.90;;;11.70;99.20;;;;;;5050767;28;20219;-71
2020/12/22 04:25:30;;;;;;;0.80;0.80;;;11.70;99.00;;;;;;5051637;28;20203;-71
2020/12/22 04:27:55;;;;;;;0.80;0.80;;;11.80;99.00;;;;;;5033923;28;20558;-70
2020/12/22 04:30:21;;;;;;;1.70;0.80;;;11.70;99.10;;;;;;5052848;28;20182;-70
2020/12/22 04:32:46;;;;;;;1.43;1.33;;;11.70;99.30;;;;;;5053641;28;20200;-70
2020/12/22 04:35:12;;;;;;;0.90;0.90;;;11.70;99.20;;;;;;5048542;28;20202;-70
2020/12/22 04:37:38;;;;;;;1.13;1.03;;;11.70;99.30;;;;;;5051931;28;20207;-70
2020/12/22 04:40:04;;;;;;;0.90;0.90;;;11.70;99.60;;;;;;5045185;28;20207;-70
2020/12/22 04:42:32;;;;;;;1.23;1.13;;;11.70;99.60;;;;;;5052040;28;21013;-71
2020/12/22 04:44:58;;;;;;;0.80;0.80;;;11.80;99.30;;;;;;5051808;28;20183;-72
2020/12/22 04:47:25;;;;;;;1.83;0.90;;;11.90;99.20;;;;;;5052086;28;20180;-69
2020/12/22 04:49:57;;;;;;;0.80;0.80;;;11.90;99.00;;;;;;5050744;28;20833;-71
2020/12/22 04:52:23;;;;;;;0.70;0.70;;;11.90;99.10;;;;;;5051654;28;20199;-70
2020/12/22 04:54:49;;;;;;;0.90;0.90;;;11.90;99.10;;;;;;5051607;28;20691;-70
2020/12/22 04:57:16;;;;;;;0.90;0.90;;;12.00;99.10;;;;;;5051782;28;20176;-70
2020/12/22 04:59:44;;;;;;;0.90;0.90;;;12.00;99.10;;;;;;5052043;28;20196;-70
2020/12/22 05:02:10;;;;;;;1.40;0.90;;;12.00;99.10;;;;;;5051599;28;20732;-70
2020/12/22 05:04:37;;;;;;;0.80;0.80;;;12.00;99.20;;;;;;5045029;28;20274;-70
2020/12/22 05:07:07;;;;;;;1.23;1.10;;;11.90;99.30;;;;;;5055175;28;20237;-73
2020/12/22 05:09:32;;;;;;;1.20;1.10;;;11.90;99.40;;;;;;5068977;28;20234;-70
2020/12/22 05:11:58;;;;;;;0.90;0.90;;;11.90;99.20;;;;;;5055270;28;20227;-71
2020/12/22 05:14:26;;;;;;;0.77;0.77;;;11.90;99.10;;;;;;5051456;28;20757;-71
2020/12/22 05:16:52;;;;;;;1.33;1.00;;;11.90;99.20;;;;;;5035016;28;20183;-70
2020/12/22 05:19:19;;;;;;;1.15;1.15;;;11.90;99.30;;;;;;5051311;28;20203;-71
2020/12/22 05:21:46;;;;;;;1.03;1.00;;;11.90;99.30;;;;;;5051537;28;20710;-70
2020/12/22 05:24:13;;;;;;;1.95;1.00;;;11.90;99.30;;;;;;5050323;28;20658;-70
2020/12/22 05:26:41;;;;;;;1.75;1.00;;;11.90;99.30;;;;;;5051314;28;20175;-71
2020/12/22 05:29:11;;;;;;;1.20;1.10;;;11.90;99.30;;;;;;5040627;28;20182;-72
2020/12/22 05:31:42;;;;;;;1.03;1.03;;;11.90;99.20;;;;;;5046559;28;20195;-72
2020/12/22 05:34:12;;;;;;;1.45;1.35;;;11.90;99.10;;;;;;5051503;28;20194;-69
2020/12/22 05:36:39;;;;;;;0.93;0.90;;;11.90;99.10;;;;;;5042569;28;20195;-70
2020/12/22 05:39:16;;;;;;;1.15;0.90;;;11.90;99.40;;;;;;5042762;28;20209;-70
2020/12/22 05:41:42;;;;;;;1.70;0.87;;;11.90;99.20;;;;;;5052815;28;20218;-70
2020/12/22 05:44:08;;;;;;;1.05;0.90;;;12.00;99.00;;;;;;5052932;28;20183;-71
2020/12/22 05:46:39;;;;;;;1.13;1.00;;;12.00;98.90;;;;;;5036874;28;20185;-71
2020/12/22 05:49:07;;;;;;;1.03;1.03;;;12.10;98.80;;;;;;5050639;28;20175;-71
2020/12/22 05:51:33;;;;;;;0.80;0.80;;;12.10;98.80;;;;;;5044318;28;20239;-71
2020/12/22 05:54:07;;;;;;;1.33;0.90;;;12.10;98.70;;;;;;5050954;28;20693;-70
2020/12/22 05:56:34;;;;;;;0.88;0.88;;;12.10;98.50;;;;;;5050125;28;20183;-70
2020/12/22 05:59:00;;;;;;;0.93;0.88;;;12.10;98.60;;;;;;5035847;28;20238;-71
2020/12/22 06:01:35;;;;;;;0.70;0.70;;;12.20;98.50;;;;;;5050907;28;20245;-71
2020/12/22 06:04:03;;;;;;;1.83;0.98;;;12.20;98.40;;;;;;5032736;28;20178;-71
2020/12/22 06:06:31;;;;;;;1.20;0.90;;;12.20;98.40;;;;;;5050242;28;20200;-70
2020/12/22 06:08:57;;;;;;;1.15;0.70;;;12.20;98.30;;;;;;5050377;28;20267;-69
2020/12/22 06:11:23;;;;;;;1.10;1.00;;;12.20;98.40;;;;;;5050420;28;20234;-71
2020/12/22 06:13:52;;;;;;;1.63;1.50;;;12.20;98.50;;;;;;5050551;28;20194;-73
2020/12/22 06:16:22;;;;;;;1.00;1.00;;;12.20;98.50;;;;;;5032433;28;20218;-69
2020/12/22 06:18:49;;;;;;;1.08;1.02;;;12.20;98.40;;;;;;5049389;28;20202;-71
2020/12/22 06:21:21;;;;;;;0.90;0.90;;;12.30;98.80;;;;;;5033165;28;20221;-69
2020/12/22 06:23:48;;;;;;;1.50;1.20;;;12.30;98.80;;;;;;5048307;28;20189;-70
2020/12/22 06:26:17;;;;;;;1.15;1.00;;;12.30;98.50;;;;;;5044837;28;20184;-70
2020/12/22 06:28:42;;;;;;;1.00;1.00;;;12.30;98.40;;;;;;5049178;28;20266;-70
2020/12/22 06:31:23;;;;;;;0.90;0.90;;;12.30;98.40;;;;;;5050560;28;20187;-70
2020/12/22 06:33:50;;;;;;;1.15;1.00;;;12.40;98.10;;;;;;5049908;28;20175;-70
2020/12/22 06:36:19;;;;;;;2.22;1.00;;;12.40;98.10;;;;;;5049426;28;20191;-70
2020/12/22 06:38:56;;;;;;;0.90;0.90;;;12.40;98.00;;;;;;5049017;28;20345;-69
2020/12/22 06:41:43;;;;;;;1.85;0.82;;;12.40;97.80;;;;;;5050559;28;20187;-71
2020/12/22 06:44:18;;;;;;;2.05;0.90;;;12.40;97.80;;;;;;5046429;28;20180;-69
2020/12/22 06:46:45;;;;;;;1.38;1.00;;;12.50;97.80;;;;;;5050319;28;20179;-69
2020/12/22 06:49:12;;;;;;;0.90;0.90;;;12.50;97.60;;;;;;5049992;28;20192;-70
2020/12/22 06:51:42;;;;;;;0.80;0.80;;;12.60;97.30;;;;;;5039243;28;20206;-70
2020/12/22 06:54:13;;;;;;;0.75;0.75;;;12.60;97.30;;;;;;5030517;28;20190;-70
2020/12/22 06:56:43;;;;;;;0.90;0.90;;;12.60;97.30;;;;;;5044504;28;20184;-70
2020/12/22 06:59:10;;;;;;;1.25;0.90;;;12.60;97.20;;;;;;5032227;28;20553;-70
2020/12/22 07:01:38;;;;;;;0.80;0.80;;;12.60;97.00;;;;;;5032997;28;20286;-71
2020/12/22 07:04:17;;;;;;;1.50;0.90;;;12.60;97.00;;;;;;5051557;28;20171;-71
2020/12/22 07:06:59;;;;;;;2.20;1.10;;;12.60;96.80;;;;;;5049466;28;20179;-71
2020/12/22 07:09:30;;;;;;;2.08;1.48;;;12.70;96.80;;;;;;5050610;28;20176;-71
2020/12/22 07:12:08;;;;;;;1.00;1.00;;;12.70;96.70;;;;;;5050012;28;20199;-70
2020/12/22 07:14:37;;;;;;;1.17;1.10;;;12.70;97.00;;;;;;5048588;28;20468;-71
2020/12/22 07:17:04;;;;;;;1.80;1.60;;;12.70;96.50;;;;;;5050207;28;20198;-70
2020/12/22 07:19:31;;;;;;;2.17;1.33;;;12.70;96.50;;;;;;5048567;28;20409;-70
2020/12/22 07:22:02;;;;;;;1.23;1.23;;;12.70;96.20;;;;;;5047549;28;20229;-71
2020/12/22 07:24:29;;;;;;;1.00;1.00;;;12.70;96.20;;;;;;5049314;28;20172;-70
2020/12/22 07:26:56;;;;;;;1.00;1.00;;;12.70;96.10;;;;;;5049328;28;20199;-71
2020/12/22 07:29:22;;;;;;;1.13;1.10;;;12.80;95.80;;;;;;5047071;28;20234;-70
2020/12/22 07:31:48;;;;;;;1.40;1.30;;;12.90;95.60;;;;;;5033577;28;20602;-70
2020/12/22 07:34:14;;;;;;;2.92;0.90;;;12.90;95.50;;;;;;5049234;28;20207;-70
2020/12/22 07:36:40;;;;;;;1.13;1.02;;;12.90;95.60;;;;;;5049124;28;20187;-70
2020/12/22 07:39:21;;;;;;;1.42;1.10;;;12.90;95.40;;;;;;5048787;28;20203;-70
2020/12/22 07:41:47;;;;;;;1.05;0.95;;;12.90;95.40;;;;;;5039813;28;20306;-70
2020/12/22 07:44:15;;;;;;;0.93;0.93;;;12.90;95.40;;;;;;5048324;28;20175;-70
2020/12/22 07:46:42;;;;;;;0.80;0.80;;;12.90;95.30;;;;;;5035640;28;20651;-69
2020/12/22 07:49:10;;;;;;;1.80;0.90;;;13.00;95.10;;;;;;5049101;28;20658;-70
2020/12/22 07:51:36;;;;;;;0.80;0.80;;;13.00;94.80;;;;;;5048923;28;20219;-71
2020/12/22 07:54:06;;;;;;;0.88;0.88;;;13.00;94.90;;;;;;5038394;28;20189;-70
2020/12/22 07:56:37;;;;;;;1.00;1.00;;;13.10;94.80;;;;;;5038451;28;20275;-69
2020/12/22 07:59:05;;;;;;;0.80;0.80;;;13.10;94.70;;;;;;5048874;28;20199;-71
2020/12/22 08:01:37;;;;;;;2.47;0.95;;;13.10;94.70;;;;;;5049696;28;20183;-71
2020/12/22 08:04:12;;;;;;;1.00;1.00;;;13.10;94.70;;;;;;5032424;28;20184;-71
2020/12/22 08:06:39;;;;;;;0.90;0.85;;;13.10;94.80;;;;;;5048914;28;20251;-71
2020/12/22 08:09:05;;;;;;;1.60;1.50;;;13.20;94.50;;;;;;5049467;28;20832;-71
2020/12/22 08:11:31;;;;;;;1.60;1.50;;;13.20;94.30;;;;;;5049586;28;20208;-71
2020/12/22 08:13:57;;;;;;;1.95;1.10;;;13.20;94.50;;;;;;5050813;28;20600;-70
2020/12/22 08:16:24;;;;;;;2.15;1.50;;;13.20;94.40;;;;;;5047609;28;20179;-69
2020/12/22 08:18:50;;;;;;;1.50;1.40;;;13.20;94.50;;;;;;5054067;28;20218;-71
2020/12/22 08:21:19;;;;;;;1.20;1.10;;;13.20;94.40;;;;;;5053880;28;20168;-71
2020/12/22 08:23:46;;;;;;;1.23;1.13;;;13.30;94.40;;;;;;5049553;28;20180;-72
2020/12/22 08:26:12;;;;;;;1.10;1.00;;;13.30;94.40;;;;;;5053377;28;20203;-70
2020/12/22 08:28:38;;;;;;;0.95;0.95;;;13.30;94.30;;;;;;5045395;28;20182;-71
2020/12/22 08:31:12;;;;;;;1.33;1.10;;;13.30;94.10;;;;;;5049764;28;20549;-71
2020/12/22 08:33:40;;;;;;;1.40;1.27;;;13.30;94.10;;;;;;5052180;28;20234;-70
2020/12/22 08:36:11;;;;;;;1.15;1.10;;;13.30;94.10;;;;;;5052419;28;20290;-71
2020/12/22 08:38:37;;;;;;;1.27;1.17;;;13.40;94.20;;;;;;5035779;28;20689;-72
2020/12/22 08:41:20;;;;;;;1.30;1.20;;;13.40;93.90;;;;;;5055487;28;20719;-70
2020/12/22 08:43:48;;;;;;;1.30;1.00;;;13.40;94.10;;;;;;5063217;28;20233;-70
2020/12/22 08:46:14;;;;;;;1.92;1.25;;;13.40;93.90;;;;;;5048390;28;20593;-72
2020/12/22 08:48:39;;;;;;;1.10;1.00;;;13.40;93.80;;;;;;5047753;28;20192;-70
2020/12/22 08:51:06;;;;;;;1.45;1.35;;;13.40;93.90;;;;;;5034768;28;20752;-70
2020/12/22 08:53:31;;;;;;;1.10;1.00;;;13.40;94.00;;;;;;5049086;28;20557;-70
2020/12/22 08:56:10;;;;;;;1.80;1.30;;;13.40;94.50;;;;;;5044563;28;20199;-71
2020/12/22 08:58:57;;;;;;;1.10;1.10;;;13.30;94.30;;;;;;5050002;28;20214;-72
2020/12/22 09:01:38;;;;;;;0.93;0.93;;;13.40;94.20;;;;;;5044925;28;20211;-72
2020/12/22 09:04:04;;;;;;;1.63;0.95;;;13.40;94.30;;;;;;5047011;28;20175;-70
2020/12/22 09:06:37;;;;;;;0.90;0.90;;;13.50;94.20;;;;;;5048750;28;20180;-70
2020/12/22 09:09:08;;;;;;;1.08;1.00;;;13.50;94.00;;;;;;5034084;28;20760;-71
2020/12/22 09:11:35;;;;;;;1.10;1.10;;;13.50;93.90;;;;;;5030524;28;20250;-70
2020/12/22 09:14:01;;;;;;;0.90;0.90;;;13.60;93.90;;;;;;5042338;28;20546;-72
2020/12/22 09:16:46;;;;;;;0.85;0.85;;;13.60;94.20;;;;;;5048386;28;20560;-71
2020/12/22 09:19:11;;;;;;;1.38;1.08;;;13.50;94.90;;;;;;5059472;28;20195;-71
2020/12/22 09:21:38;;;;;;;0.93;0.93;;;13.40;95.40;;;;;;5062777;28;20202;-71
2020/12/22 09:24:04;;;;;;;0.90;0.90;;;13.30;96.20;;;;;;5034706;28;20807;-71
2020/12/22 09:26:33;;;;;;;1.00;1.00;;;13.20;96.50;;;;;;5045880;28;20866;-70
2020/12/22 09:28:59;;;;;;;1.10;1.00;;;13.10;97.10;;;;;;5046832;28;20195;-69
2020/12/22 09:31:27;;;;;;;2.03;1.38;;;13.00;98.10;;;;;;5029770;28;20215;-72
2020/12/22 09:33:52;;;;;;;1.30;1.20;;;12.90;98.10;;;;;;5030457;28;20670;-71
2020/12/22 09:36:18;;;;;;;1.30;1.17;;;12.80;99.00;;;;;;5044054;28;20233;-70
2020/12/22 09:38:44;;;;;;;0.90;0.90;;;12.70;99.90;;;;;;5046962;28;20945;-71
2020/12/22 09:41:10;;;;;;;1.27;1.10;;;12.50;99.90;;;;;;5032751;28;20191;-70
2020/12/22 09:43:35;;;;;;;1.42;1.10;;;12.50;99.90;;;;;;5030300;28;20542;-71
2020/12/22 09:46:01;;;;;;;0.95;0.95;;;12.40;99.90;;;;;;5045186;28;20266;-71
2020/12/22 09:48:27;;;;;;;1.27;0.98;;;12.50;99.90;;;;;;5041644;28;20680;-70
2020/12/22 09:50:52;;;;;;;1.00;1.00;;;12.50;99.90;;;;;;5050022;28;20276;-72
2020/12/22 09:53:19;;;;;;;1.25;1.15;;;12.50;99.90;;;;;;5046065;28;20279;-71
2020/12/22 09:55:45;;;;;;;2.60;1.17;;;12.60;99.90;;;;;;5051232;28;20253;-70
2020/12/22 09:58:10;;;;;;;4.90;1.70;;;12.60;99.90;;;;;;5053684;28;20172;-72
2020/12/22 10:00:36;;;;;;;1.00;1.00;;;12.70;99.70;;;;;;5052142;28;20176;-72
2020/12/22 10:03:02;;;;;;;1.10;1.10;;;12.80;99.10;;;;;;5047541;28;21046;-70
2020/12/22 10:05:27;;;;;;;1.30;1.10;;;13.00;98.30;;;;;;5031542;28;20175;-69
2020/12/22 10:07:53;;;;;;;1.20;1.15;;;13.10;98.00;;;;;;5048936;28;20565;-70
2020/12/22 10:10:19;;;;;;;1.40;1.30;;;13.10;98.00;;;;;;5049490;28;20230;-70
2020/12/22 10:12:44;;;;;;;2.05;1.15;;;13.10;98.30;;;;;;5042787;28;20223;-70
2020/12/22 10:15:10;;;;;;;1.40;0.90;;;13.20;97.90;;;;;;5018736;28;20192;-70
2020/12/22 10:17:35;;;;;;;1.92;1.25;;;13.30;97.30;;;;;;5043367;28;20240;-70
2020/12/22 10:20:01;;;;;;;1.35;1.25;;;13.40;97.20;;;;;;5048841;28;20199;-70
2020/12/22 10:22:30;;;;;;;2.08;1.10;;;13.50;96.50;;;;;;5051175;28;20198;-70
2020/12/22 10:24:56;;;;;;;1.25;1.00;;;13.60;95.90;;;;;;5050587;28;20285;-72
2020/12/22 10:27:21;;;;;;;1.23;1.13;;;13.70;95.90;;;;;;5043966;28;20271;-69
2020/12/22 10:29:47;;;;;;;1.95;1.20;;;13.70;95.90;;;;;;5049562;28;20266;-70
2020/12/22 10:32:13;;;;;;;1.75;1.20;;;13.70;95.60;;;;;;5049870;28;20214;-69
2020/12/22 10:34:38;;;;;;;2.88;1.30;;;13.70;95.30;;;;;;5046264;28;20693;-70
2020/12/22 10:37:04;;;;;;;1.30;1.23;;;13.70;95.40;;;;;;5040272;28;20195;-70
2020/12/22 10:39:29;;;;;;;0.95;0.80;;;13.90;94.50;;;;;;5037181;28;20217;-69
2020/12/22 10:41:55;;;;;;;1.58;1.10;;;14.00;94.20;;;;;;5050034;28;20234;-70
2020/12/22 10:44:21;;;;;;;1.58;1.20;;;14.00;94.10;;;;;;5049754;28;20183;-70
2020/12/22 10:46:47;;;;;;;1.10;1.05;;;14.00;94.00;;;;;;5049834;28;20186;-71
2020/12/22 10:49:13;;;;;;;1.52;1.10;;;14.00;94.10;;;;;;5050662;28;20184;-70
2020/12/22 10:51:39;;;;;;;1.02;0.90;;;14.00;94.20;;;;;;5049530;28;20201;-70
2020/12/22 10:54:04;;;;;;;1.13;1.02;;;13.90;94.20;;;;;;5043131;28;20207;-70
2020/12/22 10:56:30;;;;;;;2.95;0.90;;;13.90;94.30;;;;;;5049182;28;20207;-69
2020/12/22 10:58:58;;;;;;;1.50;1.40;;;14.00;94.30;;;;;;5047870;28;20240;-70
2020/12/22 11:01:23;;;;;;;0.77;0.77;;;14.00;93.90;;;;;;5038552;28;20200;-72
2020/12/22 11:03:49;;;;;;;1.33;0.90;;;14.00;93.90;;;;;;5048931;28;20238;-69
2020/12/22 11:08:45;;;;;;;0.90;0.90;;;14.00;93.90;;;;;;5049751;28;20179;-71
2020/12/22 11:11:11;;;;;;;0.80;0.80;;;14.00;94.30;;;;;;5049516;28;20191;-73
2020/12/22 11:13:37;;;;;;;0.98;0.95;;;14.00;93.90;;;;;;5049340;28;20184;-71
2020/12/22 11:16:05;;;;;;;2.03;1.42;;;13.90;94.20;;;;;;5049687;28;20267;-72
2020/12/22 11:18:31;;;;;;;0.80;0.80;;;13.90;94.30;;;;;;5049609;28;20211;-73
2020/12/22 11:20:57;;;;;;;0.70;0.70;;;13.80;94.60;;;;;;5052853;28;20254;-73
2020/12/22 11:23:22;;;;;;;0.90;0.90;;;13.80;94.60;;;;;;5034309;28;20282;-72
2020/12/22 11:25:48;;;;;;;0.90;0.90;;;13.80;94.90;;;;;;5043742;28;20191;-73
2020/12/22 11:28:14;;;;;;;0.80;0.68;;;13.70;94.90;;;;;;5041860;28;20175;-73
2020/12/22 11:30:39;;;;;;;1.40;1.30;;;13.80;94.90;;;;;;5045928;28;20180;-73
2020/12/22 11:33:05;;;;;;;1.10;0.90;;;13.70;95.20;;;;;;5042737;28;20584;-72
2020/12/22 11:35:31;;;;;;;0.80;0.80;;;13.80;95.00;;;;;;5045987;28;20179;-72
2020/12/22 11:37:57;;;;;;;1.20;1.05;;;13.80;95.10;;;;;;5049434;28;20213;-71
2020/12/22 11:40:24;;;;;;;1.98;1.20;;;13.80;95.10;;;;;;5049726;28;20215;-71
2020/12/22 11:42:49;;;;;;;0.98;0.90;;;13.80;95.20;;;;;;5049458;28;20232;-72
2020/12/22 11:45:15;;;;;;;1.25;0.95;;;13.80;95.20;;;;;;5047835;28;20219;-71
2020/12/22 11:47:40;;;;;;;0.90;0.90;;;13.80;95.20;;;;;;5049544;28;20217;-71
2020/12/22 11:50:06;;;;;;;0.80;0.80;;;13.90;95.00;;;;;;5050450;28;20728;-71
2020/12/22 11:52:32;;;;;;;0.80;0.80;;;13.90;95.10;;;;;;5048607;28;20200;-71
2020/12/22 11:54:58;;;;;;;0.90;0.90;;;14.00;95.20;;;;;;5044401;28;20565;-71
2020/12/22 11:57:23;;;;;;;2.45;1.63;;;14.00;94.90;;;;;;5052693;28;20184;-70
2020/12/22 11:59:49;;;;;;;79.28;47.50;;;14.10;94.90;;;;;;5049322;28;20204;-71
2020/12/22 12:02:14;;;;;;;12.18;5.13;;;14.20;95.00;;;;;;5039402;28;20195;-71
2020/12/22 12:04:40;;;;;;;3.17;1.45;;;14.30;94.40;;;;;;5041599;28;20188;-71
2020/12/22 12:07:06;;;;;;;31.92;17.02;;;14.40;94.10;;;;;;5044739;28;20575;-72
2020/12/22 12:09:31;;;;;;;3.72;2.20;;;14.40;94.20;;;;;;5047401;28;20186;-73
2020/12/22 12:11:57;;;;;;;0.85;0.82;;;14.40;94.20;;;;;;5041371;28;20238;-72
2020/12/22 12:14:23;;;;;;;0.90;0.90;;;14.40;94.60;;;;;;5052571;28;20890;-71
2020/12/22 12:16:49;;;;;;;1.30;1.20;;;14.30;94.30;;;;;;5052193;28;20258;-71
2020/12/22 12:19:16;;;;;;;0.93;0.93;;;14.50;94.00;;;;;;5053426;28;20195;-70
2020/12/22 12:21:42;;;;;;;1.98;1.77;;;14.70;93.60;;;;;;5050712;28;20214;-71
2020/12/22 12:24:08;;;;;;;2.97;2.78;;;14.60;93.60;;;;;;5042069;28;20175;-72
2020/12/22 12:26:35;;;;;;;1.50;1.40;;;14.60;93.90;;;;;;5045648;28;20663;-71
2020/12/22 12:29:01;;;;;;;1.08;1.05;;;14.40;94.30;;;;;;5028010;28;20289;-71
2020/12/22 12:31:28;;;;;;;1.35;1.30;;;14.20;94.70;;;;;;5052515;28;20199;-71
2020/12/22 12:33:54;;;;;;;0.93;0.93;;;14.10;95.40;;;;;;5039234;28;20241;-71
2020/12/22 12:36:19;;;;;;;1.15;1.00;;;14.00;95.90;;;;;;5046628;28;20187;-72
2020/12/22 12:38:45;;;;;;;1.50;0.95;;;14.10;96.10;;;;;;5052045;28;20573;-71
2020/12/22 12:41:14;;;;;;;0.80;0.80;;;14.00;96.10;;;;;;5051964;28;20202;-71
2020/12/22 12:43:40;;;;;;;0.98;0.98;;;13.90;96.30;;;;;;5045028;28;20714;-72
2020/12/22 12:46:07;;;;;;;0.93;0.93;;;13.90;96.60;;;;;;5038557;28;20172;-71
2020/12/22 12:48:36;;;;;;;1.10;1.00;;;13.90;96.50;;;;;;5051126;28;20180;-72
2020/12/22 12:51:06;;;;;;;0.90;0.90;;;13.90;96.60;;;;;;5051654;28;20195;-71